Time;durP1;ratioP1;P1;durP2;ratioP2;P2;SDS_P1;SDS_P2;PMS_P1;PMS_P2;Temp;Humidity;BMP_temperature;BMP_pressure;BME280_temperature;BME280_humidity;BME280_pressure;Samples;Min_cycle;Max_cycle;Signal;HPM_P1;HPM_P2
2021/11/14 00:00:59;;;;;;;21.17;14.20;;;13.70;99.90;;;;;;5070793;28;20029;-76
2021/11/14 00:03:26;;;;;;;21.08;13.98;;;13.70;99.90;;;;;;5071890;28;20039;-76
2021/11/14 00:05:52;;;;;;;23.33;14.20;;;13.80;99.90;;;;;;5076268;28;20071;-76
2021/11/14 00:08:18;;;;;;;27.50;15.02;;;13.80;99.90;;;;;;5082806;28;20082;-75
2021/11/14 00:10:47;;;;;;;19.95;13.95;;;13.90;99.90;;;;;;5072151;28;20024;-75
2021/11/14 00:13:13;;;;;;;21.60;14.07;;;13.90;99.90;;;;;;5078896;28;20491;-75
2021/11/14 00:15:39;;;;;;;21.23;14.13;;;13.90;99.90;;;;;;5087456;28;20090;-75
2021/11/14 00:18:06;;;;;;;21.15;14.57;;;13.90;99.90;;;;;;5092166;28;20077;-75
2021/11/14 00:20:34;;;;;;;23.80;13.35;;;13.90;99.90;;;;;;5089386;28;20043;-76
2021/11/14 00:23:00;;;;;;;24.42;13.55;;;13.90;99.90;;;;;;5071512;28;20027;-75
2021/11/14 00:25:26;;;;;;;21.67;13.02;;;13.90;99.90;;;;;;5070170;28;20542;-75
2021/11/14 00:27:52;;;;;;;24.17;12.77;;;13.90;99.90;;;;;;5071957;28;20025;-76
2021/11/14 00:30:19;;;;;;;20.23;13.13;;;13.90;99.90;;;;;;5072403;28;20490;-75
2021/11/14 00:32:46;;;;;;;20.52;13.70;;;13.90;99.90;;;;;;5073286;28;20021;-75
2021/11/14 00:35:14;;;;;;;20.02;13.48;;;13.90;99.90;;;;;;5078738;28;20127;-75
2021/11/14 00:37:39;;;;;;;24.10;14.68;;;13.90;99.90;;;;;;5083610;28;20016;-75
2021/11/14 00:40:15;;;;;;;18.75;13.88;;;13.80;99.90;;;;;;5093421;28;20119;-75
2021/11/14 00:42:41;;;;;;;18.33;12.57;;;13.80;99.90;;;;;;5096076;28;20032;-76
2021/11/14 00:45:08;;;;;;;21.58;11.82;;;13.80;99.90;;;;;;5095767;28;20550;-75
2021/11/14 00:47:34;;;;;;;18.15;11.13;;;13.80;99.90;;;;;;5095583;28;20056;-76
2021/11/14 00:50:05;;;;;;;16.77;11.63;;;13.80;99.90;;;;;;5095233;28;20028;-76
2021/11/14 00:52:31;;;;;;;19.40;11.63;;;13.90;99.90;;;;;;5095447;28;20012;-76
2021/11/14 00:54:57;;;;;;;18.27;11.23;;;13.90;99.90;;;;;;5078777;28;20048;-76
2021/11/14 00:57:22;;;;;;;15.93;11.73;;;13.90;99.90;;;;;;5075419;28;20384;-75
2021/11/14 00:59:48;;;;;;;17.13;11.63;;;13.90;99.90;;;;;;5075269;28;20499;-76
2021/11/14 01:02:14;;;;;;;19.58;10.73;;;13.90;99.90;;;;;;5075123;28;20418;-75
2021/11/14 01:04:39;;;;;;;19.00;11.07;;;13.90;99.90;;;;;;5074713;28;20479;-76
2021/11/14 01:07:05;;;;;;;15.13;10.75;;;13.90;99.90;;;;;;5074996;28;20024;-75
2021/11/14 01:09:31;;;;;;;19.90;10.68;;;13.90;99.90;;;;;;5075265;28;20060;-76
2021/11/14 01:11:57;;;;;;;18.80;10.93;;;13.80;99.90;;;;;;5075098;28;20115;-75
2021/11/14 01:14:23;;;;;;;16.13;10.75;;;13.80;99.90;;;;;;5074713;28;20029;-75
2021/11/14 01:16:49;;;;;;;14.73;10.38;;;13.80;99.90;;;;;;5074856;28;20027;-76
2021/11/14 01:19:14;;;;;;;16.13;10.68;;;13.90;99.90;;;;;;5074967;28;20024;-76
2021/11/14 01:21:45;;;;;;;20.80;10.45;;;13.90;99.90;;;;;;5074790;28;20028;-76
2021/11/14 01:24:12;;;;;;;14.48;10.55;;;13.90;99.90;;;;;;5074999;28;20017;-76
2021/11/14 01:26:37;;;;;;;12.55;9.07;;;13.90;99.90;;;;;;5074730;28;20441;-76
2021/11/14 01:29:03;;;;;;;12.70;9.35;;;13.90;99.90;;;;;;5074457;28;20039;-76
2021/11/14 01:31:29;;;;;;;17.92;9.38;;;13.90;99.90;;;;;;5074440;28;20029;-75
2021/11/14 01:33:55;;;;;;;13.77;9.52;;;14.00;99.90;;;;;;5074236;28;20025;-75
2021/11/14 01:36:21;;;;;;;12.82;8.18;;;14.20;99.90;;;;;;5073755;28;20048;-75
2021/11/14 01:38:47;;;;;;;12.27;8.38;;;14.10;99.90;;;;;;5074553;28;20394;-76
2021/11/14 01:41:13;;;;;;;12.48;8.50;;;14.20;99.90;;;;;;5072973;28;20475;-75
2021/11/14 01:43:51;;;;;;;11.95;8.13;;;14.20;99.90;;;;;;5074757;28;20082;-76
2021/11/14 01:46:18;;;;;;;13.70;7.72;;;14.20;99.90;;;;;;5073202;28;20017;-76
2021/11/14 01:48:45;;;;;;;11.30;8.40;;;14.30;99.90;;;;;;5073351;28;20024;-76
2021/11/14 01:51:11;;;;;;;12.63;8.35;;;14.30;99.90;;;;;;5073245;28;20108;-75
2021/11/14 01:53:39;;;;;;;15.57;7.88;;;14.30;99.90;;;;;;5074445;28;20047;-76
2021/11/14 01:56:07;;;;;;;11.07;8.45;;;14.30;99.90;;;;;;5074270;28;20086;-76
2021/11/14 01:58:32;;;;;;;11.77;8.18;;;14.30;99.90;;;;;;5074274;28;20016;-75
2021/11/14 02:00:58;;;;;;;13.27;7.75;;;14.30;99.90;;;;;;5074315;28;20031;-74
2021/11/14 02:03:25;;;;;;;13.15;8.07;;;14.30;99.90;;;;;;5073836;28;20100;-75
2021/11/14 02:05:51;;;;;;;16.35;8.30;;;14.30;99.90;;;;;;5073912;28;20419;-76
2021/11/14 02:08:17;;;;;;;13.63;8.27;;;14.40;99.90;;;;;;5074216;28;20059;-75
2021/11/14 02:10:44;;;;;;;14.93;7.55;;;14.40;99.90;;;;;;5074219;28;20457;-75
2021/11/14 02:13:10;;;;;;;15.02;7.82;;;14.40;99.90;;;;;;5074288;28;20053;-75
2021/11/14 02:15:38;;;;;;;9.73;7.45;;;14.40;99.90;;;;;;5074081;28;20056;-75
2021/11/14 02:18:09;;;;;;;8.35;6.45;;;14.50;99.90;;;;;;5071398;28;20517;-75
2021/11/14 02:20:36;;;;;;;11.98;6.85;;;14.60;99.90;;;;;;5072158;28;20366;-75
2021/11/14 02:23:05;;;;;;;9.55;6.85;;;14.60;99.90;;;;;;5072170;28;20031;-76
2021/11/14 02:25:32;;;;;;;12.68;7.30;;;14.70;99.90;;;;;;5072963;28;20021;-75
2021/11/14 02:27:57;;;;;;;12.18;8.00;;;14.70;99.90;;;;;;5073571;28;20111;-76
2021/11/14 02:30:24;;;;;;;10.13;7.97;;;14.80;99.90;;;;;;5073064;28;20104;-75
2021/11/14 02:32:52;;;;;;;13.65;8.88;;;14.70;99.90;;;;;;5073539;28;20055;-75
2021/11/14 02:35:18;;;;;;;12.43;8.05;;;14.70;99.90;;;;;;5073447;28;20045;-75
2021/11/14 02:37:44;;;;;;;16.83;8.05;;;14.70;99.90;;;;;;5073707;28;20031;-75
2021/11/14 02:40:11;;;;;;;12.50;7.72;;;14.80;99.90;;;;;;5073665;28;20389;-75
2021/11/14 02:42:38;;;;;;;18.33;8.00;;;14.80;99.90;;;;;;5073323;28;20495;-75
2021/11/14 02:45:09;;;;;;;10.82;7.32;;;14.70;99.90;;;;;;5070098;28;20547;-75
2021/11/14 02:47:35;;;;;;;14.43;8.43;;;14.70;99.90;;;;;;5071968;28;20031;-76
2021/11/14 02:50:03;;;;;;;13.07;8.63;;;14.70;99.90;;;;;;5073285;28;20028;-75
2021/11/14 02:52:29;;;;;;;13.75;8.25;;;14.60;99.90;;;;;;5073468;28;20487;-76
2021/11/14 02:54:55;;;;;;;11.77;7.80;;;14.60;99.90;;;;;;5073322;28;20032;-75
2021/11/14 02:57:21;;;;;;;12.73;7.95;;;14.70;99.90;;;;;;5072966;28;20094;-75
2021/11/14 02:59:47;;;;;;;9.75;7.47;;;14.70;99.90;;;;;;5072715;28;20074;-75
2021/11/14 03:02:12;;;;;;;9.30;6.82;;;14.60;99.90;;;;;;5073197;28;20032;-75
2021/11/14 03:04:38;;;;;;;10.48;7.00;;;14.60;99.90;;;;;;5072917;28;20452;-75
2021/11/14 03:07:04;;;;;;;13.73;8.00;;;14.60;99.90;;;;;;5073302;28;20495;-76
2021/11/14 03:09:33;;;;;;;13.95;8.13;;;14.70;99.90;;;;;;5073129;28;20103;-75
2021/11/14 03:11:59;;;;;;;12.13;8.13;;;14.70;99.90;;;;;;5072898;28;20031;-76
2021/11/14 03:14:26;;;;;;;9.82;7.40;;;14.70;99.90;;;;;;5072531;28;20060;-76
2021/11/14 03:16:52;;;;;;;16.92;8.38;;;14.60;99.90;;;;;;5072973;28;20435;-76
2021/11/14 03:19:19;;;;;;;13.80;8.00;;;14.60;99.90;;;;;;5071884;28;20465;-76
2021/11/14 03:21:45;;;;;;;12.95;8.25;;;14.60;99.90;;;;;;5072694;28;20028;-75
2021/11/14 03:24:11;;;;;;;13.75;8.40;;;14.60;99.90;;;;;;5072842;28;20016;-76
2021/11/14 03:26:38;;;;;;;11.10;8.05;;;14.60;99.90;;;;;;5072493;28;20096;-77
2021/11/14 03:29:04;;;;;;;12.00;7.80;;;14.60;99.90;;;;;;5071742;28;20482;-74
2021/11/14 03:31:31;;;;;;;17.98;8.00;;;14.60;99.90;;;;;;5072151;28;20025;-76
2021/11/14 03:33:57;;;;;;;9.65;7.45;;;14.60;99.90;;;;;;5071923;28;20028;-75
2021/11/14 03:36:24;;;;;;;9.40;7.60;;;14.60;99.90;;;;;;5071587;28;20049;-74
2021/11/14 03:38:52;;;;;;;11.57;8.10;;;14.60;99.90;;;;;;5069765;28;20024;-76
2021/11/14 03:41:24;;;;;;;9.30;7.20;;;14.60;99.90;;;;;;5069964;28;20020;-76
2021/11/14 03:43:51;;;;;;;12.25;8.27;;;14.60;99.90;;;;;;5070578;28;20461;-76
2021/11/14 03:46:17;;;;;;;15.68;7.72;;;14.60;99.90;;;;;;5071273;28;20446;-76
2021/11/14 03:48:46;;;;;;;11.32;7.93;;;14.50;99.90;;;;;;5071637;28;20095;-75
2021/11/14 03:51:13;;;;;;;13.98;7.85;;;14.50;99.90;;;;;;5071363;28;20039;-75
2021/11/14 03:53:38;;;;;;;7.90;6.60;;;14.50;99.90;;;;;;5069928;28;20024;-76
2021/11/14 03:56:05;;;;;;;12.40;7.75;;;14.50;99.90;;;;;;5069621;28;20556;-76
2021/11/14 03:58:31;;;;;;;10.75;7.80;;;14.40;99.90;;;;;;5070115;28;20392;-76
2021/11/14 04:01:02;;;;;;;12.00;7.68;;;14.50;99.90;;;;;;5070119;28;20021;-76
2021/11/14 04:03:29;;;;;;;13.52;8.80;;;14.50;99.90;;;;;;5070337;28;20025;-76
2021/11/14 04:05:56;;;;;;;9.95;7.60;;;14.50;99.90;;;;;;5070127;28;20020;-76
2021/11/14 04:08:24;;;;;;;9.18;7.30;;;14.50;99.90;;;;;;5071036;28;20040;-75
2021/11/14 04:10:52;;;;;;;9.43;7.85;;;14.50;99.90;;;;;;5072217;28;20020;-76
2021/11/14 04:13:18;;;;;;;9.45;7.50;;;14.50;99.90;;;;;;5072065;28;20029;-75
2021/11/14 04:15:45;;;;;;;9.50;6.95;;;14.50;99.90;;;;;;5074924;28;20033;-75
2021/11/14 04:18:11;;;;;;;8.55;7.32;;;14.50;99.90;;;;;;5075143;28;20020;-76
2021/11/14 04:20:39;;;;;;;10.25;7.75;;;14.50;99.90;;;;;;5075999;28;20055;-76
2021/11/14 04:23:06;;;;;;;13.10;7.93;;;14.40;99.90;;;;;;5075853;28;20388;-76
2021/11/14 04:25:32;;;;;;;15.23;7.15;;;14.40;99.90;;;;;;5075692;28;20095;-76
2021/11/14 04:27:58;;;;;;;12.45;7.85;;;14.30;99.90;;;;;;5075900;28;20563;-75
2021/11/14 04:30:27;;;;;;;10.30;7.10;;;14.30;99.90;;;;;;5074390;28;20024;-76
2021/11/14 04:32:53;;;;;;;11.98;7.30;;;14.20;99.90;;;;;;5075533;28;20031;-75
2021/11/14 04:35:19;;;;;;;9.25;7.57;;;14.20;99.90;;;;;;5075376;28;20044;-75
2021/11/14 04:37:51;;;;;;;10.30;7.88;;;14.20;99.90;;;;;;5075420;28;20024;-75
2021/11/14 04:40:20;;;;;;;13.65;7.18;;;14.20;99.90;;;;;;5075152;28;20031;-76
2021/11/14 04:42:46;;;;;;;12.18;7.68;;;14.20;99.90;;;;;;5075392;28;20028;-76
2021/11/14 04:45:12;;;;;;;12.55;7.50;;;14.20;99.90;;;;;;5075473;28;20099;-75
2021/11/14 04:47:38;;;;;;;13.45;8.13;;;14.20;99.90;;;;;;5075381;28;20028;-76
2021/11/14 04:50:07;;;;;;;11.02;7.50;;;14.20;99.90;;;;;;5075119;28;20416;-76
2021/11/14 04:52:33;;;;;;;13.23;7.68;;;14.30;99.90;;;;;;5075516;28;20021;-76
2021/11/14 04:54:59;;;;;;;9.88;7.45;;;14.30;99.90;;;;;;5075462;28;20514;-75
2021/11/14 04:57:25;;;;;;;10.50;7.45;;;14.30;99.90;;;;;;5075314;28;20013;-75
2021/11/14 04:59:51;;;;;;;10.27;7.95;;;14.30;99.90;;;;;;5075055;28;20081;-76
2021/11/14 05:02:17;;;;;;;11.65;7.40;;;14.30;99.90;;;;;;5073637;28;20047;-75
2021/11/14 05:04:42;;;;;;;12.02;8.30;;;14.30;99.90;;;;;;5075007;28;20039;-75
2021/11/14 05:07:09;;;;;;;11.25;7.80;;;14.30;99.90;;;;;;5074809;28;20031;-75
2021/11/14 05:09:35;;;;;;;12.95;7.63;;;14.30;99.90;;;;;;5074994;28;20085;-76
2021/11/14 05:12:00;;;;;;;9.50;7.40;;;14.30;99.90;;;;;;5074990;28;20426;-75
2021/11/14 05:14:26;;;;;;;10.15;7.03;;;14.30;99.90;;;;;;5075026;28;20024;-76
2021/11/14 05:16:52;;;;;;;10.40;7.57;;;14.30;99.90;;;;;;5068672;28;20029;-75
2021/11/14 05:19:18;;;;;;;11.48;7.63;;;14.30;99.90;;;;;;5055011;28;20086;-75
2021/11/14 05:21:43;;;;;;;10.27;7.63;;;14.20;99.90;;;;;;5054680;28;20048;-76
2021/11/14 05:24:09;;;;;;;11.98;7.93;;;14.20;99.90;;;;;;5055254;28;20484;-75
2021/11/14 05:26:35;;;;;;;12.25;8.30;;;14.20;99.90;;;;;;5053534;28;20107;-76
2021/11/14 05:29:02;;;;;;;9.57;7.82;;;14.10;99.90;;;;;;5054686;28;20028;-76
2021/11/14 05:31:28;;;;;;;13.95;8.45;;;14.10;99.90;;;;;;5054593;28;20032;-75
2021/11/14 05:33:54;;;;;;;10.40;8.30;;;14.10;99.90;;;;;;5054191;28;20037;-76
2021/11/14 05:36:19;;;;;;;11.13;7.93;;;14.10;99.90;;;;;;5054089;28;20124;-75
2021/11/14 05:38:45;;;;;;;14.25;7.78;;;14.00;99.90;;;;;;5072529;28;20029;-75
2021/11/14 05:41:11;;;;;;;9.02;7.25;;;14.10;99.90;;;;;;5074679;28;20039;-75
2021/11/14 05:43:36;;;;;;;12.70;8.70;;;14.10;99.90;;;;;;5074415;28;20552;-76
2021/11/14 05:46:02;;;;;;;10.73;7.88;;;14.00;99.90;;;;;;5074301;28;20020;-75
2021/11/14 05:48:28;;;;;;;10.73;7.55;;;13.90;99.90;;;;;;5074502;28;20072;-76
2021/11/14 05:50:54;;;;;;;12.80;9.18;;;13.90;99.90;;;;;;5074122;28;20012;-76
2021/11/14 05:53:20;;;;;;;14.30;8.75;;;13.90;99.90;;;;;;5074064;28;20025;-75
2021/11/14 05:55:46;;;;;;;13.18;8.20;;;13.80;99.90;;;;;;5073996;28;20086;-75
2021/11/14 05:58:17;;;;;;;14.40;8.07;;;13.80;99.90;;;;;;5073932;28;20057;-75
2021/11/14 06:00:56;;;;;;;11.27;8.07;;;13.80;99.90;;;;;;5073715;28;20028;-76
2021/11/14 06:05:56;;;;;;;11.15;7.88;;;13.80;99.90;;;;;;5074052;28;20031;-76
2021/11/14 06:08:22;;;;;;;13.70;8.32;;;13.70;99.90;;;;;;5073961;28;20103;-75
2021/11/14 06:10:49;;;;;;;14.30;9.15;;;13.70;99.90;;;;;;5073954;28;20025;-75
2021/11/14 06:13:15;;;;;;;11.10;7.47;;;13.70;99.90;;;;;;5074047;28;20488;-75
2021/11/14 06:15:41;;;;;;;12.65;8.50;;;13.70;99.90;;;;;;5073527;28;20381;-75
2021/11/14 06:18:07;;;;;;;12.15;8.27;;;13.60;99.90;;;;;;5073676;28;20077;-75
2021/11/14 06:20:33;;;;;;;15.50;8.52;;;13.60;99.90;;;;;;5073298;28;20460;-75
2021/11/14 06:22:58;;;;;;;12.05;7.95;;;13.60;99.90;;;;;;5073445;28;20024;-77
2021/11/14 06:25:24;;;;;;;11.77;8.90;;;13.60;99.90;;;;;;5073536;28;20107;-75
2021/11/14 06:27:50;;;;;;;9.57;7.88;;;13.60;99.90;;;;;;5073381;28;20025;-74
2021/11/14 06:30:16;;;;;;;14.27;7.85;;;13.60;99.90;;;;;;5073428;28;20024;-75
2021/11/14 06:32:42;;;;;;;14.20;8.15;;;13.60;99.90;;;;;;5079984;28;20020;-76
2021/11/14 06:35:09;;;;;;;10.73;7.68;;;13.70;99.90;;;;;;5080594;28;20044;-75
2021/11/14 06:37:35;;;;;;;11.82;7.90;;;13.80;99.90;;;;;;5075114;28;20049;-76
2021/11/14 06:40:01;;;;;;;10.40;7.40;;;13.90;99.90;;;;;;5081349;28;20035;-76
2021/11/14 06:42:27;;;;;;;12.20;8.02;;;14.10;99.90;;;;;;5072573;28;20021;-75
2021/11/14 06:44:52;;;;;;;16.70;7.25;;;14.50;99.90;;;;;;5088185;28;20360;-75
2021/11/14 06:47:18;;;;;;;11.35;6.80;;;14.70;99.90;;;;;;5083978;28;20031;-75
2021/11/14 06:49:46;;;;;;;9.82;7.18;;;14.80;99.90;;;;;;5089483;28;20024;-76
2021/11/14 06:52:12;;;;;;;10.45;7.18;;;15.00;99.90;;;;;;5073161;28;20019;-76
2021/11/14 06:54:38;;;;;;;9.57;6.60;;;15.30;99.90;;;;;;5073132;28;20047;-76
2021/11/14 06:57:04;;;;;;;8.95;6.13;;;15.60;99.90;;;;;;5071907;28;20029;-76
2021/11/14 06:59:30;;;;;;;9.43;6.32;;;15.90;99.90;;;;;;5073225;28;20091;-76
2021/11/14 07:01:55;;;;;;;9.68;6.03;;;16.10;99.90;;;;;;5073080;28;20107;-76
2021/11/14 07:04:21;;;;;;;10.57;6.07;;;16.10;99.90;;;;;;5079371;28;20360;-76
2021/11/14 07:06:47;;;;;;;9.60;6.80;;;16.10;99.90;;;;;;5076677;28;20119;-77
2021/11/14 07:09:14;;;;;;;10.85;6.18;;;16.50;99.90;;;;;;5090429;28;20496;-76
2021/11/14 07:11:40;;;;;;;7.80;5.68;;;16.70;99.90;;;;;;5072471;28;20024;-76
2021/11/14 07:14:06;;;;;;;9.82;5.72;;;16.90;99.90;;;;;;5072727;28;20046;-76
2021/11/14 07:16:33;;;;;;;7.82;5.72;;;17.10;99.90;;;;;;5072543;28;20048;-76
2021/11/14 07:18:59;;;;;;;9.68;5.40;;;17.50;99.90;;;;;;5072876;28;20032;-76
2021/11/14 07:21:26;;;;;;;9.02;4.97;;;18.10;99.90;;;;;;5072931;28;20040;-76
2021/11/14 07:23:51;;;;;;;7.45;4.93;;;18.10;99.90;;;;;;5072252;28;20096;-77
2021/11/14 07:26:17;;;;;;;17.48;4.93;;;18.30;99.90;;;;;;5086388;28;20824;-77
2021/11/14 07:28:43;;;;;;;6.10;4.30;;;18.90;99.90;;;;;;5086981;28;20025;-76
2021/11/14 07:31:09;;;;;;;6.75;4.53;;;19.80;99.90;;;;;;5089340;28;20089;-76
2021/11/14 07:33:35;;;;;;;6.85;4.78;;;20.10;99.90;;;;;;5092505;28;20024;-75
2021/11/14 07:36:01;;;;;;;5.25;4.43;;;19.80;99.90;;;;;;5083910;28;20536;-77
2021/11/14 07:38:27;;;;;;;6.05;4.50;;;19.20;99.90;;;;;;5071686;28;20060;-77
2021/11/14 07:40:54;;;;;;;5.97;4.30;;;18.70;99.90;;;;;;5071831;28;20392;-76
2021/11/14 07:43:19;;;;;;;6.78;4.82;;;18.20;99.90;;;;;;5072419;28;20025;-75
2021/11/14 07:45:45;;;;;;;10.95;5.10;;;17.80;99.90;;;;;;5072337;28;20032;-76
2021/11/14 07:48:11;;;;;;;5.85;4.53;;;17.20;99.90;;;;;;5089997;28;20391;-75
2021/11/14 07:50:39;;;;;;;6.28;5.10;;;17.00;99.90;;;;;;5088802;28;20033;-76
2021/11/14 07:53:05;;;;;;;7.20;5.10;;;16.80;99.90;;;;;;5072705;28;20021;-76
2021/11/14 07:55:32;;;;;;;10.75;5.05;;;16.80;99.90;;;;;;5082714;28;20032;-76
2021/11/14 07:57:59;;;;;;;7.25;4.60;;;16.70;99.90;;;;;;5092769;28;20099;-76
2021/11/14 08:00:25;;;;;;;6.57;5.13;;;16.90;99.90;;;;;;5092624;28;20107;-76
2021/11/14 08:02:51;;;;;;;8.18;5.40;;;17.20;99.90;;;;;;5088792;28;20377;-76
2021/11/14 08:05:18;;;;;;;5.63;5.00;;;17.40;99.90;;;;;;5072193;28;20024;-76
2021/11/14 08:07:47;;;;;;;5.75;4.75;;;17.50;99.90;;;;;;5076262;28;20029;-76
2021/11/14 08:10:15;;;;;;;7.75;5.15;;;17.30;99.90;;;;;;5071227;28;20381;-75
2021/11/14 08:12:41;;;;;;;6.18;4.28;;;17.30;99.90;;;;;;5091207;28;20047;-76
2021/11/14 08:15:07;;;;;;;8.65;4.53;;;17.40;99.90;;;;;;5072391;28;20519;-77
2021/11/14 08:17:33;;;;;;;4.63;4.13;;;17.70;99.90;;;;;;5072389;28;20025;-76
2021/11/14 08:20:00;;;;;;;6.00;4.43;;;18.00;99.90;;;;;;5072370;28;20028;-76
2021/11/14 08:22:28;;;;;;;5.80;4.20;;;18.20;99.90;;;;;;5072123;28;20043;-76
2021/11/14 08:24:54;;;;;;;5.93;4.50;;;18.60;99.90;;;;;;5072159;28;20036;-77
2021/11/14 08:27:21;;;;;;;7.78;5.32;;;18.60;99.90;;;;;;5072242;28;20396;-77
2021/11/14 08:29:46;;;;;;;9.10;3.88;;;19.10;99.90;;;;;;5080708;28;20388;-76
2021/11/14 08:32:12;;;;;;;5.68;3.83;;;19.10;99.90;;;;;;5057166;28;20027;-76
2021/11/14 08:34:38;;;;;;;6.35;4.20;;;19.00;99.90;;;;;;5068391;28;20043;-76
2021/11/14 08:37:04;;;;;;;6.15;3.65;;;18.90;99.90;;;;;;5071562;28;20385;-76
2021/11/14 08:39:30;;;;;;;7.18;4.22;;;18.70;99.90;;;;;;5071011;28;20052;-76
2021/11/14 08:41:56;;;;;;;5.28;4.10;;;18.90;99.90;;;;;;5070712;28;20028;-76
2021/11/14 08:44:25;;;;;;;5.38;3.60;;;18.90;99.90;;;;;;5070825;28;20029;-76
2021/11/14 08:46:52;;;;;;;10.27;4.18;;;19.10;99.90;;;;;;5071661;28;20023;-75
2021/11/14 08:49:18;;;;;;;4.88;3.28;;;19.20;99.90;;;;;;5072156;28;20052;-76
2021/11/14 08:51:44;;;;;;;8.90;3.55;;;19.20;99.90;;;;;;5071729;28;20027;-77
2021/11/14 08:54:10;;;;;;;4.25;3.28;;;19.10;99.90;;;;;;5071121;28;20427;-77
2021/11/14 08:56:36;;;;;;;5.20;3.20;;;19.00;99.90;;;;;;5071831;28;20037;-76
2021/11/14 08:59:04;;;;;;;7.53;5.50;;;19.00;99.90;;;;;;5071506;28;20052;-75
2021/11/14 09:01:30;;;;;;;4.53;3.40;;;19.00;99.90;;;;;;5072898;28;20020;-76
2021/11/14 09:03:56;;;;;;;5.00;3.40;;;19.00;99.90;;;;;;5074895;28;20032;-76
2021/11/14 09:06:22;;;;;;;5.53;3.53;;;19.20;99.90;;;;;;5067648;28;20496;-76
2021/11/14 09:08:48;;;;;;;4.15;2.97;;;19.50;99.90;;;;;;5063625;28;20059;-77
2021/11/14 09:11:15;;;;;;;5.97;3.05;;;19.70;99.90;;;;;;5063471;28;20029;-76
2021/11/14 09:13:41;;;;;;;3.92;2.80;;;19.80;99.90;;;;;;5070155;28;20086;-76
2021/11/14 09:16:06;;;;;;;3.30;2.65;;;19.70;99.90;;;;;;5072988;28;20123;-76
2021/11/14 09:18:32;;;;;;;4.05;2.97;;;19.70;99.90;;;;;;5074934;28;20027;-76
2021/11/14 09:20:59;;;;;;;3.42;3.03;;;19.80;99.90;;;;;;5075348;28;20059;-76
2021/11/14 09:23:27;;;;;;;3.78;2.67;;;20.00;99.90;;;;;;5074556;28;20020;-76
2021/11/14 09:25:54;;;;;;;3.97;2.70;;;20.10;99.90;;;;;;5074100;28;20476;-75
2021/11/14 09:28:19;;;;;;;3.50;2.80;;;20.40;99.90;;;;;;5073682;28;20035;-76
2021/11/14 09:30:49;;;;;;;2.80;2.60;;;20.70;99.90;;;;;;5066379;28;20021;-76
2021/11/14 09:33:16;;;;;;;3.50;2.53;;;20.80;99.90;;;;;;5074237;28;20085;-75
2021/11/14 09:35:42;;;;;;;2.40;2.20;;;21.10;99.90;;;;;;5073822;28;20051;-76
2021/11/14 09:38:07;;;;;;;7.30;2.60;;;21.20;99.90;;;;;;5074659;28;20020;-73
2021/11/14 09:40:34;;;;;;;3.35;2.60;;;21.30;99.90;;;;;;5074760;28;20090;-74
2021/11/14 09:43:01;;;;;;;4.78;2.55;;;21.30;99.90;;;;;;5074778;28;20059;-75
2021/11/14 09:45:29;;;;;;;4.85;3.08;;;21.10;99.90;;;;;;5073477;28;20082;-72
2021/11/14 09:47:55;;;;;;;3.75;2.83;;;21.10;99.90;;;;;;5072649;28;20115;-72
2021/11/14 09:50:24;;;;;;;3.85;2.83;;;21.20;99.90;;;;;;5074742;28;20052;-72
2021/11/14 09:52:51;;;;;;;3.40;2.58;;;21.30;99.90;;;;;;5074448;28;20020;-70
2021/11/14 09:55:17;;;;;;;4.20;2.53;;;21.30;99.90;;;;;;5073338;28;20041;-77
2021/11/14 09:57:43;;;;;;;3.25;2.75;;;21.00;99.90;;;;;;5062230;28;20103;-79
2021/11/14 10:00:12;;;;;;;4.05;3.20;;;20.60;99.90;;;;;;5062577;28;20024;-80
2021/11/14 10:02:39;;;;;;;3.85;2.65;;;20.00;99.90;;;;;;5054846;28;20013;-73
2021/11/14 10:05:07;;;;;;;3.03;2.78;;;19.70;99.90;;;;;;5071987;28;20115;-73
2021/11/14 10:07:33;;;;;;;4.32;3.00;;;19.50;99.90;;;;;;5071881;28;20020;-73
2021/11/14 10:09:59;;;;;;;5.05;3.42;;;19.30;99.90;;;;;;5073103;28;20411;-74
2021/11/14 10:12:35;;;;;;;4.03;2.75;;;19.20;99.90;;;;;;5071989;28;20166;-73
2021/11/14 10:15:13;;;;;;;4.38;2.50;;;19.50;99.90;;;;;;5071784;28;20041;-75
2021/11/14 10:17:44;;;;;;;3.42;2.92;;;20.20;99.90;;;;;;5073835;28;20066;-76
2021/11/14 10:20:16;;;;;;;12.02;3.13;;;20.50;99.90;;;;;;5073407;28;20059;-75
2021/11/14 10:22:49;;;;;;;3.22;2.80;;;20.70;99.90;;;;;;5072414;28;20368;-74
2021/11/14 10:25:15;;;;;;;3.83;2.83;;;21.10;99.90;;;;;;5073510;28;20021;-72
2021/11/14 10:27:42;;;;;;;3.50;2.90;;;21.30;99.90;;;;;;5071686;28;20036;-72
2021/11/14 10:30:10;;;;;;;4.53;3.03;;;21.10;99.90;;;;;;5073583;28;20046;-74
2021/11/14 10:32:36;;;;;;;3.42;3.05;;;20.90;99.90;;;;;;5072658;28;20024;-74
2021/11/14 10:35:03;;;;;;;4.35;2.90;;;20.70;99.90;;;;;;5073111;28;20400;-73
2021/11/14 10:37:32;;;;;;;3.83;3.05;;;20.40;99.90;;;;;;5073959;28;20032;-73
2021/11/14 10:40:03;;;;;;;3.20;2.90;;;20.00;99.90;;;;;;5073924;28;20027;-72
2021/11/14 10:42:31;;;;;;;3.70;3.20;;;19.90;99.90;;;;;;5073823;28;20027;-74
2021/11/14 10:45:01;;;;;;;4.78;3.45;;;19.80;99.90;;;;;;5072936;28;20028;-74
2021/11/14 10:47:28;;;;;;;5.78;3.08;;;19.90;99.90;;;;;;5071919;28;20021;-73
2021/11/14 10:50:00;;;;;;;3.97;3.45;;;19.90;99.90;;;;;;5071880;28;20021;-73
2021/11/14 10:52:28;;;;;;;6.38;2.88;;;19.80;99.90;;;;;;5073300;28;20025;-72
2021/11/14 10:54:57;;;;;;;4.63;3.35;;;19.70;99.90;;;;;;5073517;28;20043;-73
2021/11/14 10:57:27;;;;;;;3.60;3.30;;;19.70;99.90;;;;;;5073761;28;20040;-73
2021/11/14 10:59:53;;;;;;;3.80;3.20;;;19.60;99.90;;;;;;5073910;28;20476;-74
2021/11/14 11:02:21;;;;;;;4.50;3.45;;;19.60;99.90;;;;;;5073343;28;20263;-73
2021/11/14 11:04:48;;;;;;;9.27;3.58;;;19.70;99.90;;;;;;5074165;28;20024;-73
2021/11/14 11:07:14;;;;;;;4.50;4.05;;;19.60;99.90;;;;;;5073450;28;20449;-78
2021/11/14 11:09:42;;;;;;;5.97;4.22;;;19.40;99.90;;;;;;5073309;28;20059;-74
2021/11/14 11:12:35;;;;;;;12.00;8.45;;;19.20;99.90;;;;;;5073724;28;20029;-74
2021/11/14 11:15:06;;;;;;;9.68;4.50;;;18.90;99.90;;;;;;5069557;28;20036;-74
2021/11/14 11:17:45;;;;;;;8.48;5.50;;;18.70;99.90;;;;;;5073045;28;20458;-74
2021/11/14 11:20:14;;;;;;;10.20;7.90;;;18.60;99.90;;;;;;5073919;28;20025;-74
2021/11/14 11:22:55;;;;;;;6.00;4.97;;;18.60;99.90;;;;;;5073668;28;20472;-77
2021/11/14 11:25:45;;;;;;;6.93;4.85;;;18.50;99.90;;;;;;5073061;28;20441;-74
2021/11/14 11:28:15;;;;;;;5.63;4.43;;;18.40;99.90;;;;;;5073011;28;20415;-74
2021/11/14 11:30:46;;;;;;;6.68;5.22;;;18.30;99.90;;;;;;5072966;28;20063;-73
2021/11/14 11:33:11;;;;;;;5.97;3.95;;;18.20;99.90;;;;;;5072856;28;20055;-73
2021/11/14 11:35:37;;;;;;;5.75;4.70;;;17.90;99.90;;;;;;5072879;28;20060;-74
2021/11/14 11:38:05;;;;;;;6.80;4.60;;;17.80;99.90;;;;;;5073122;28;20025;-75
2021/11/14 11:40:31;;;;;;;4.93;4.30;;;17.70;99.90;;;;;;5073042;28;20025;-75
2021/11/14 11:42:57;;;;;;;6.30;5.35;;;17.70;99.90;;;;;;5072952;28;20055;-74
2021/11/14 11:45:39;;;;;;;5.75;4.88;;;17.60;99.90;;;;;;5072994;28;20032;-74
2021/11/14 11:48:15;;;;;;;8.48;5.97;;;17.40;99.90;;;;;;5073128;28;20108;-74
2021/11/14 11:50:41;;;;;;;13.50;5.07;;;17.40;99.90;;;;;;5075346;28;20515;-73
2021/11/14 11:53:18;;;;;;;12.35;5.72;;;17.30;99.90;;;;;;5072797;28;20021;-75
2021/11/14 11:55:43;;;;;;;7.53;5.25;;;17.20;99.90;;;;;;5052437;28;20401;-72
2021/11/14 11:58:16;;;;;;;7.32;5.45;;;17.00;99.90;;;;;;5067806;28;20020;-73
2021/11/14 12:00:58;;;;;;;6.72;4.78;;;16.90;99.90;;;;;;5064350;28;20219;-73
2021/11/14 12:03:38;;;;;;;5.70;4.68;;;16.70;99.90;;;;;;5064560;28;20477;-74
2021/11/14 12:06:17;;;;;;;23.08;13.43;;;16.50;99.90;;;;;;5070343;28;20044;-76
2021/11/14 12:08:48;;;;;;;11.95;9.10;;;16.40;99.90;;;;;;5070542;28;20063;-73
2021/11/14 12:11:35;;;;;;;10.60;8.00;;;16.30;99.90;;;;;;5070549;28;20013;-73
2021/11/14 12:14:26;;;;;;;8.57;7.65;;;16.40;99.90;;;;;;5069813;28;20039;-73
2021/11/14 12:17:07;;;;;;;7.80;6.25;;;16.30;99.90;;;;;;5053267;28;20037;-73
2021/11/14 12:19:38;;;;;;;8.25;5.25;;;16.10;99.90;;;;;;5069991;28;20031;-73
2021/11/14 12:22:13;;;;;;;6.40;4.78;;;16.00;99.90;;;;;;5071314;28;20372;-74
2021/11/14 12:24:47;;;;;;;5.10;4.25;;;15.90;99.90;;;;;;5063934;28;20101;-74
2021/11/14 12:27:34;;;;;;;5.43;4.80;;;15.90;99.90;;;;;;5069697;28;20364;-73
2021/11/14 12:30:08;;;;;;;7.07;5.63;;;15.80;99.90;;;;;;5069892;28;20029;-73
2021/11/14 12:32:45;;;;;;;5.95;4.55;;;15.80;99.90;;;;;;5069650;28;20091;-71
2021/11/14 12:35:25;;;;;;;8.48;5.13;;;15.70;99.90;;;;;;5066733;28;20473;-72
2021/11/14 12:37:57;;;;;;;6.53;5.28;;;15.70;99.90;;;;;;5068521;28;20401;-73
2021/11/14 12:40:44;;;;;;;6.03;5.05;;;15.60;99.90;;;;;;5054818;28;20017;-74
2021/11/14 12:43:19;;;;;;;5.43;4.68;;;15.60;99.90;;;;;;5055086;28;20530;-74
2021/11/14 12:45:52;;;;;;;6.43;5.10;;;15.50;99.90;;;;;;5054976;28;20025;-75